sensor_id;sensor_type;location;lat;lon;timestamp;P1;durP1;ratioP1;P2;durP2;ratioP2
23884;SDS011;12123;53.088;7.392;2022-11-27T00:01:12;29.52;;;12.65;;
23884;SDS011;12123;53.088;7.392;2022-11-27T00:03:40;33.67;;;13.77;;
23884;SDS011;12123;53.088;7.392;2022-11-27T00:06:10;46.45;;;14.25;;
23884;SDS011;12123;53.088;7.392;2022-11-27T00:08:38;38.20;;;13.52;;
23884;SDS011;12123;53.088;7.392;2022-11-27T00:11:27;29.92;;;12.38;;
23884;SDS011;12123;53.088;7.392;2022-11-27T00:13:53;36.67;;;13.85;;
23884;SDS011;12123;53.088;7.392;2022-11-27T00:16:21;40.42;;;13.93;;
23884;SDS011;12123;53.088;7.392;2022-11-27T00:18:49;31.55;;;12.45;;
23884;SDS011;12123;53.088;7.392;2022-11-27T00:21:23;47.00;;;14.25;;
23884;SDS011;12123;53.088;7.392;2022-11-27T00:23:51;27.48;;;12.52;;
23884;SDS011;12123;53.088;7.392;2022-11-27T00:26:19;34.00;;;12.18;;
23884;SDS011;12123;53.088;7.392;2022-11-27T00:28:46;31.65;;;13.18;;
23884;SDS011;12123;53.088;7.392;2022-11-27T00:31:14;30.77;;;11.98;;
23884;SDS011;12123;53.088;7.392;2022-11-27T00:33:42;28.90;;;12.60;;
23884;SDS011;12123;53.088;7.392;2022-11-27T00:36:10;29.90;;;12.15;;
23884;SDS011;12123;53.088;7.392;2022-11-27T00:38:38;31.10;;;11.45;;
23884;SDS011;12123;53.088;7.392;2022-11-27T00:41:09;35.25;;;11.88;;
23884;SDS011;12123;53.088;7.392;2022-11-27T00:43:36;38.17;;;12.63;;
23884;SDS011;12123;53.088;7.392;2022-11-27T00:46:13;33.28;;;12.20;;
23884;SDS011;12123;53.088;7.392;2022-11-27T00:48:41;35.30;;;12.45;;
23884;SDS011;12123;53.088;7.392;2022-11-27T00:51:09;32.42;;;11.60;;
23884;SDS011;12123;53.088;7.392;2022-11-27T00:53:37;31.02;;;12.45;;
23884;SDS011;12123;53.088;7.392;2022-11-27T00:56:04;26.77;;;11.23;;
23884;SDS011;12123;53.088;7.392;2022-11-27T00:58:32;29.75;;;10.82;;
23884;SDS011;12123;53.088;7.392;2022-11-27T01:01:00;33.92;;;11.40;;
23884;SDS011;12123;53.088;7.392;2022-11-27T01:03:28;34.67;;;11.18;;
23884;SDS011;12123;53.088;7.392;2022-11-27T01:05:55;26.73;;;10.57;;
23884;SDS011;12123;53.088;7.392;2022-11-27T01:08:23;32.50;;;11.15;;
23884;SDS011;12123;53.088;7.392;2022-11-27T01:10:53;29.65;;;9.88;;
23884;SDS011;12123;53.088;7.392;2022-11-27T01:13:22;25.92;;;10.68;;
23884;SDS011;12123;53.088;7.392;2022-11-27T01:18:32;32.83;;;10.82;;
23884;SDS011;12123;53.088;7.392;2022-11-27T01:21:00;23.25;;;10.20;;
23884;SDS011;12123;53.088;7.392;2022-11-27T01:23:27;39.22;;;12.18;;
23884;SDS011;12123;53.088;7.392;2022-11-27T01:25:55;35.25;;;10.65;;
23884;SDS011;12123;53.088;7.392;2022-11-27T01:28:22;29.25;;;10.90;;
23884;SDS011;12123;53.088;7.392;2022-11-27T01:30:50;35.75;;;11.35;;
23884;SDS011;12123;53.088;7.392;2022-11-27T01:33:17;25.30;;;10.02;;
23884;SDS011;12123;53.088;7.392;2022-11-27T01:35:57;25.40;;;10.80;;
23884;SDS011;12123;53.088;7.392;2022-11-27T01:38:25;31.50;;;12.10;;
23884;SDS011;12123;53.088;7.392;2022-11-27T01:40:59;27.45;;;9.93;;
23884;SDS011;12123;53.088;7.392;2022-11-27T01:48:52;34.25;;;10.63;;
23884;SDS011;12123;53.088;7.392;2022-11-27T01:51:19;27.42;;;11.65;;
23884;SDS011;12123;53.088;7.392;2022-11-27T01:53:49;23.95;;;10.05;;
23884;SDS011;12123;53.088;7.392;2022-11-27T01:56:16;27.65;;;9.77;;
23884;SDS011;12123;53.088;7.392;2022-11-27T01:58:44;32.58;;;9.95;;
23884;SDS011;12123;53.088;7.392;2022-11-27T02:01:12;19.98;;;9.57;;
23884;SDS011;12123;53.088;7.392;2022-11-27T02:03:39;31.73;;;10.57;;
23884;SDS011;12123;53.088;7.392;2022-11-27T02:06:07;27.85;;;9.95;;
23884;SDS011;12123;53.088;7.392;2022-11-27T02:08:35;22.42;;;9.55;;
23884;SDS011;12123;53.088;7.392;2022-11-27T02:11:07;22.60;;;10.10;;
23884;SDS011;12123;53.088;7.392;2022-11-27T02:13:39;24.52;;;10.48;;
23884;SDS011;12123;53.088;7.392;2022-11-27T02:19:00;20.67;;;9.13;;
23884;SDS011;12123;53.088;7.392;2022-11-27T02:29:13;19.85;;;9.10;;
23884;SDS011;12123;53.088;7.392;2022-11-27T02:37:10;27.90;;;10.80;;
23884;SDS011;12123;53.088;7.392;2022-11-27T02:42:22;25.88;;;9.98;;
23884;SDS011;12123;53.088;7.392;2022-11-27T02:44:54;28.35;;;11.27;;
23884;SDS011;12123;53.088;7.392;2022-11-27T02:47:22;26.13;;;9.48;;
23884;SDS011;12123;53.088;7.392;2022-11-27T02:49:50;23.95;;;9.18;;
23884;SDS011;12123;53.088;7.392;2022-11-27T02:52:22;27.50;;;9.23;;
23884;SDS011;12123;53.088;7.392;2022-11-27T02:54:51;20.60;;;9.05;;
23884;SDS011;12123;53.088;7.392;2022-11-27T02:57:21;25.15;;;9.55;;
23884;SDS011;12123;53.088;7.392;2022-11-27T02:59:49;25.20;;;9.82;;
23884;SDS011;12123;53.088;7.392;2022-11-27T03:02:19;21.48;;;8.25;;
23884;SDS011;12123;53.088;7.392;2022-11-27T03:04:48;22.88;;;10.00;;
23884;SDS011;12123;53.088;7.392;2022-11-27T03:07:22;27.30;;;8.85;;
23884;SDS011;12123;53.088;7.392;2022-11-27T03:09:51;22.25;;;9.60;;
23884;SDS011;12123;53.088;7.392;2022-11-27T03:12:23;25.95;;;9.68;;
23884;SDS011;12123;53.088;7.392;2022-11-27T03:14:50;17.30;;;8.60;;
23884;SDS011;12123;53.088;7.392;2022-11-27T03:20:12;29.42;;;10.02;;
23884;SDS011;12123;53.088;7.392;2022-11-27T03:22:43;21.63;;;7.90;;
23884;SDS011;12123;53.088;7.392;2022-11-27T03:25:10;26.67;;;9.13;;
23884;SDS011;12123;53.088;7.392;2022-11-27T03:27:39;19.63;;;8.35;;
23884;SDS011;12123;53.088;7.392;2022-11-27T03:30:09;22.23;;;8.88;;
23884;SDS011;12123;53.088;7.392;2022-11-27T03:32:37;15.95;;;7.63;;
23884;SDS011;12123;53.088;7.392;2022-11-27T03:35:05;27.42;;;8.80;;
23884;SDS011;12123;53.088;7.392;2022-11-27T03:37:34;19.48;;;8.10;;
23884;SDS011;12123;53.088;7.392;2022-11-27T03:40:01;28.73;;;8.80;;
23884;SDS011;12123;53.088;7.392;2022-11-27T03:42:30;30.70;;;9.25;;
23884;SDS011;12123;53.088;7.392;2022-11-27T04:00:06;17.00;;;7.53;;
23884;SDS011;12123;53.088;7.392;2022-11-27T04:02:40;21.13;;;8.25;;
23884;SDS011;12123;53.088;7.392;2022-11-27T04:05:08;27.17;;;8.25;;
23884;SDS011;12123;53.088;7.392;2022-11-27T04:07:35;15.77;;;6.90;;
23884;SDS011;12123;53.088;7.392;2022-11-27T04:10:03;25.83;;;7.78;;
23884;SDS011;12123;53.088;7.392;2022-11-27T04:12:30;21.40;;;7.95;;
23884;SDS011;12123;53.088;7.392;2022-11-27T04:14:57;17.60;;;7.47;;
23884;SDS011;12123;53.088;7.392;2022-11-27T04:17:25;21.08;;;7.63;;
23884;SDS011;12123;53.088;7.392;2022-11-27T04:19:52;18.98;;;7.82;;
23884;SDS011;12123;53.088;7.392;2022-11-27T04:22:20;17.20;;;7.10;;
23884;SDS011;12123;53.088;7.392;2022-11-27T04:24:47;21.30;;;7.68;;
23884;SDS011;12123;53.088;7.392;2022-11-27T04:27:14;19.25;;;6.82;;
23884;SDS011;12123;53.088;7.392;2022-11-27T04:29:42;21.25;;;7.20;;
23884;SDS011;12123;53.088;7.392;2022-11-27T04:32:09;18.50;;;7.07;;
23884;SDS011;12123;53.088;7.392;2022-11-27T04:34:36;23.55;;;7.07;;
23884;SDS011;12123;53.088;7.392;2022-11-27T04:37:04;21.83;;;7.75;;
23884;SDS011;12123;53.088;7.392;2022-11-27T04:39:31;18.10;;;8.52;;
23884;SDS011;12123;53.088;7.392;2022-11-27T04:41:58;29.05;;;7.78;;
23884;SDS011;12123;53.088;7.392;2022-11-27T04:44:25;22.52;;;7.35;;
23884;SDS011;12123;53.088;7.392;2022-11-27T04:46:52;28.73;;;8.52;;
23884;SDS011;12123;53.088;7.392;2022-11-27T04:49:20;23.70;;;8.23;;
23884;SDS011;12123;53.088;7.392;2022-11-27T04:51:47;18.83;;;6.90;;
23884;SDS011;12123;53.088;7.392;2022-11-27T04:54:14;22.58;;;6.88;;
23884;SDS011;12123;53.088;7.392;2022-11-27T04:56:41;18.23;;;7.82;;
23884;SDS011;12123;53.088;7.392;2022-11-27T04:59:08;19.05;;;8.18;;
23884;SDS011;12123;53.088;7.392;2022-11-27T05:01:36;20.73;;;8.63;;
23884;SDS011;12123;53.088;7.392;2022-11-27T05:04:03;20.65;;;7.93;;
23884;SDS011;12123;53.088;7.392;2022-11-27T05:06:30;21.13;;;6.68;;
23884;SDS011;12123;53.088;7.392;2022-11-27T05:08:57;18.48;;;8.07;;
23884;SDS011;12123;53.088;7.392;2022-11-27T05:11:28;15.43;;;7.10;;
23884;SDS011;12123;53.088;7.392;2022-11-27T05:13:56;17.77;;;8.02;;
23884;SDS011;12123;53.088;7.392;2022-11-27T05:16:44;23.50;;;7.53;;
23884;SDS011;12123;53.088;7.392;2022-11-27T05:19:12;15.23;;;6.40;;
23884;SDS011;12123;53.088;7.392;2022-11-27T05:21:39;18.63;;;7.82;;
23884;SDS011;12123;53.088;7.392;2022-11-27T05:24:07;19.77;;;7.20;;
23884;SDS011;12123;53.088;7.392;2022-11-27T05:26:35;24.10;;;8.02;;
23884;SDS011;12123;53.088;7.392;2022-11-27T05:29:02;16.60;;;6.53;;
23884;SDS011;12123;53.088;7.392;2022-11-27T05:31:29;20.27;;;7.60;;
23884;SDS011;12123;53.088;7.392;2022-11-27T05:33:57;14.82;;;6.97;;
23884;SDS011;12123;53.088;7.392;2022-11-27T05:36:24;22.20;;;7.40;;
23884;SDS011;12123;53.088;7.392;2022-11-27T05:38:51;19.83;;;7.88;;
23884;SDS011;12123;53.088;7.392;2022-11-27T05:41:19;20.10;;;7.45;;
23884;SDS011;12123;53.088;7.392;2022-11-27T05:43:46;25.30;;;7.47;;
23884;SDS011;12123;53.088;7.392;2022-11-27T05:46:14;21.73;;;7.18;;
23884;SDS011;12123;53.088;7.392;2022-11-27T05:48:41;20.95;;;7.15;;
23884;SDS011;12123;53.088;7.392;2022-11-27T05:51:08;15.50;;;6.50;;
23884;SDS011;12123;53.088;7.392;2022-11-27T05:53:36;16.52;;;6.57;;
23884;SDS011;12123;53.088;7.392;2022-11-27T05:56:07;15.73;;;7.45;;
23884;SDS011;12123;53.088;7.392;2022-11-27T05:58:34;18.13;;;7.53;;
23884;SDS011;12123;53.088;7.392;2022-11-27T06:01:02;17.75;;;7.07;;
23884;SDS011;12123;53.088;7.392;2022-11-27T06:03:29;13.30;;;7.00;;
23884;SDS011;12123;53.088;7.392;2022-11-27T06:05:57;12.00;;;6.82;;
23884;SDS011;12123;53.088;7.392;2022-11-27T06:08:24;16.38;;;7.25;;
23884;SDS011;12123;53.088;7.392;2022-11-27T06:10:51;14.75;;;6.70;;
23884;SDS011;12123;53.088;7.392;2022-11-27T06:13:18;15.93;;;6.75;;
23884;SDS011;12123;53.088;7.392;2022-11-27T06:15:45;17.27;;;7.95;;
23884;SDS011;12123;53.088;7.392;2022-11-27T06:18:13;15.02;;;7.30;;
23884;SDS011;12123;53.088;7.392;2022-11-27T06:20:40;14.25;;;6.78;;
23884;SDS011;12123;53.088;7.392;2022-11-27T06:23:11;21.55;;;8.25;;
23884;SDS011;12123;53.088;7.392;2022-11-27T06:25:38;18.83;;;7.45;;
23884;SDS011;12123;53.088;7.392;2022-11-27T06:28:05;13.15;;;7.18;;
23884;SDS011;12123;53.088;7.392;2022-11-27T06:30:32;17.85;;;7.78;;
23884;SDS011;12123;53.088;7.392;2022-11-27T06:32:59;14.68;;;7.57;;
23884;SDS011;12123;53.088;7.392;2022-11-27T06:35:27;17.75;;;7.45;;
23884;SDS011;12123;53.088;7.392;2022-11-27T06:37:54;20.95;;;7.43;;
23884;SDS011;12123;53.088;7.392;2022-11-27T06:40:21;12.95;;;7.32;;
23884;SDS011;12123;53.088;7.392;2022-11-27T06:42:48;15.90;;;6.65;;
23884;SDS011;12123;53.088;7.392;2022-11-27T06:45:15;18.80;;;7.10;;
23884;SDS011;12123;53.088;7.392;2022-11-27T06:47:42;13.70;;;7.78;;
23884;SDS011;12123;53.088;7.392;2022-11-27T06:50:10;16.23;;;7.00;;
23884;SDS011;12123;53.088;7.392;2022-11-27T06:52:37;20.77;;;8.15;;
23884;SDS011;12123;53.088;7.392;2022-11-27T06:55:06;16.23;;;7.60;;
23884;SDS011;12123;53.088;7.392;2022-11-27T06:57:33;11.70;;;6.53;;
23884;SDS011;12123;53.088;7.392;2022-11-27T07:00:00;19.17;;;6.97;;
23884;SDS011;12123;53.088;7.392;2022-11-27T07:02:27;21.90;;;6.95;;
23884;SDS011;12123;53.088;7.392;2022-11-27T07:04:55;19.63;;;8.68;;
23884;SDS011;12123;53.088;7.392;2022-11-27T07:07:22;18.38;;;8.32;;
23884;SDS011;12123;53.088;7.392;2022-11-27T07:09:49;13.50;;;7.47;;
23884;SDS011;12123;53.088;7.392;2022-11-27T07:12:17;19.33;;;7.15;;
23884;SDS011;12123;53.088;7.392;2022-11-27T07:14:44;18.45;;;7.10;;
23884;SDS011;12123;53.088;7.392;2022-11-27T07:17:11;17.15;;;7.75;;
23884;SDS011;12123;53.088;7.392;2022-11-27T07:19:38;12.05;;;6.93;;
23884;SDS011;12123;53.088;7.392;2022-11-27T07:22:05;20.67;;;7.80;;
23884;SDS011;12123;53.088;7.392;2022-11-27T07:24:32;16.75;;;7.55;;
23884;SDS011;12123;53.088;7.392;2022-11-27T07:27:00;14.68;;;7.90;;
23884;SDS011;12123;53.088;7.392;2022-11-27T07:29:27;17.13;;;7.85;;
23884;SDS011;12123;53.088;7.392;2022-11-27T07:31:55;14.18;;;7.05;;
23884;SDS011;12123;53.088;7.392;2022-11-27T07:34:22;14.57;;;6.57;;
23884;SDS011;12123;53.088;7.392;2022-11-27T07:36:49;17.10;;;7.57;;
23884;SDS011;12123;53.088;7.392;2022-11-27T07:39:16;17.50;;;6.90;;
23884;SDS011;12123;53.088;7.392;2022-11-27T07:42:03;11.80;;;6.88;;
23884;SDS011;12123;53.088;7.392;2022-11-27T07:44:50;19.80;;;7.07;;
23884;SDS011;12123;53.088;7.392;2022-11-27T07:47:18;15.50;;;7.03;;
23884;SDS011;12123;53.088;7.392;2022-11-27T07:49:45;11.48;;;6.18;;
23884;SDS011;12123;53.088;7.392;2022-11-27T07:52:12;14.45;;;6.70;;
23884;SDS011;12123;53.088;7.392;2022-11-27T07:54:39;11.88;;;5.68;;
23884;SDS011;12123;53.088;7.392;2022-11-27T07:57:07;16.50;;;6.82;;
23884;SDS011;12123;53.088;7.392;2022-11-27T07:59:34;15.27;;;6.72;;
23884;SDS011;12123;53.088;7.392;2022-11-27T08:02:01;17.48;;;6.60;;
23884;SDS011;12123;53.088;7.392;2022-11-27T08:04:29;13.55;;;6.55;;
23884;SDS011;12123;53.088;7.392;2022-11-27T08:06:56;14.65;;;7.57;;
23884;SDS011;12123;53.088;7.392;2022-11-27T08:09:23;14.45;;;6.28;;
23884;SDS011;12123;53.088;7.392;2022-11-27T08:11:51;18.02;;;6.40;;
23884;SDS011;12123;53.088;7.392;2022-11-27T08:14:18;14.90;;;6.15;;
23884;SDS011;12123;53.088;7.392;2022-11-27T08:16:45;16.48;;;5.97;;
23884;SDS011;12123;53.088;7.392;2022-11-27T08:19:12;15.93;;;6.40;;
23884;SDS011;12123;53.088;7.392;2022-11-27T08:21:40;15.25;;;7.20;;
23884;SDS011;12123;53.088;7.392;2022-11-27T08:24:07;16.13;;;7.10;;
23884;SDS011;12123;53.088;7.392;2022-11-27T08:26:34;15.38;;;6.35;;
23884;SDS011;12123;53.088;7.392;2022-11-27T08:29:01;14.93;;;6.63;;
23884;SDS011;12123;53.088;7.392;2022-11-27T08:31:29;11.88;;;6.05;;
23884;SDS011;12123;53.088;7.392;2022-11-27T08:33:56;13.23;;;6.65;;
23884;SDS011;12123;53.088;7.392;2022-11-27T08:36:24;19.48;;;6.45;;
23884;SDS011;12123;53.088;7.392;2022-11-27T08:38:54;14.55;;;7.28;;
23884;SDS011;12123;53.088;7.392;2022-11-27T08:41:22;14.40;;;6.47;;
23884;SDS011;12123;53.088;7.392;2022-11-27T08:43:49;18.17;;;7.25;;
23884;SDS011;12123;53.088;7.392;2022-11-27T08:46:16;17.65;;;6.38;;
23884;SDS011;12123;53.088;7.392;2022-11-27T08:48:43;19.38;;;6.38;;
23884;SDS011;12123;53.088;7.392;2022-11-27T08:51:12;15.15;;;6.03;;
23884;SDS011;12123;53.088;7.392;2022-11-27T08:53:40;14.27;;;6.35;;
23884;SDS011;12123;53.088;7.392;2022-11-27T08:56:19;16.23;;;5.72;;
23884;SDS011;12123;53.088;7.392;2022-11-27T08:58:47;12.18;;;5.85;;
23884;SDS011;12123;53.088;7.392;2022-11-27T09:01:24;18.52;;;6.47;;
23884;SDS011;12123;53.088;7.392;2022-11-27T09:03:51;12.25;;;6.75;;
23884;SDS011;12123;53.088;7.392;2022-11-27T09:06:20;14.80;;;6.55;;
23884;SDS011;12123;53.088;7.392;2022-11-27T09:08:47;13.27;;;7.05;;
23884;SDS011;12123;53.088;7.392;2022-11-27T09:11:16;11.48;;;5.80;;
23884;SDS011;12123;53.088;7.392;2022-11-27T09:13:44;13.32;;;6.03;;
23884;SDS011;12123;53.088;7.392;2022-11-27T09:16:12;15.88;;;6.10;;
23884;SDS011;12123;53.088;7.392;2022-11-27T09:18:39;18.65;;;6.65;;
23884;SDS011;12123;53.088;7.392;2022-11-27T09:21:07;14.70;;;6.95;;
23884;SDS011;12123;53.088;7.392;2022-11-27T09:23:35;23.65;;;6.68;;
23884;SDS011;12123;53.088;7.392;2022-11-27T09:26:04;19.63;;;7.95;;
23884;SDS011;12123;53.088;7.392;2022-11-27T09:28:32;18.83;;;6.72;;
23884;SDS011;12123;53.088;7.392;2022-11-27T09:31:00;16.80;;;8.23;;
23884;SDS011;12123;53.088;7.392;2022-11-27T09:33:28;15.95;;;6.30;;
23884;SDS011;12123;53.088;7.392;2022-11-27T09:35:55;12.48;;;5.80;;
23884;SDS011;12123;53.088;7.392;2022-11-27T09:38:23;17.65;;;5.70;;
23884;SDS011;12123;53.088;7.392;2022-11-27T09:40:51;12.90;;;5.55;;
23884;SDS011;12123;53.088;7.392;2022-11-27T09:43:20;15.13;;;5.38;;
23884;SDS011;12123;53.088;7.392;2022-11-27T09:45:49;19.48;;;7.18;;
23884;SDS011;12123;53.088;7.392;2022-11-27T09:48:21;11.77;;;5.57;;
23884;SDS011;12123;53.088;7.392;2022-11-27T09:50:50;13.07;;;6.15;;
23884;SDS011;12123;53.088;7.392;2022-11-27T09:55:47;12.10;;;5.97;;
23884;SDS011;12123;53.088;7.392;2022-11-27T09:58:17;14.65;;;5.20;;
23884;SDS011;12123;53.088;7.392;2022-11-27T10:00:45;10.35;;;5.32;;
23884;SDS011;12123;53.088;7.392;2022-11-27T10:03:16;17.67;;;6.95;;
23884;SDS011;12123;53.088;7.392;2022-11-27T10:08:42;11.40;;;5.78;;
23884;SDS011;12123;53.088;7.392;2022-11-27T10:11:17;15.45;;;6.75;;
23884;SDS011;12123;53.088;7.392;2022-11-27T10:18:51;14.80;;;6.35;;
23884;SDS011;12123;53.088;7.392;2022-11-27T10:24:17;16.13;;;6.18;;
23884;SDS011;12123;53.088;7.392;2022-11-27T10:26:47;16.92;;;6.65;;
23884;SDS011;12123;53.088;7.392;2022-11-27T10:29:26;17.42;;;6.07;;
23884;SDS011;12123;53.088;7.392;2022-11-27T10:32:00;12.93;;;6.65;;
23884;SDS011;12123;53.088;7.392;2022-11-27T10:34:37;15.57;;;7.68;;
23884;SDS011;12123;53.088;7.392;2022-11-27T10:39:47;14.07;;;6.80;;
23884;SDS011;12123;53.088;7.392;2022-11-27T10:42:21;14.48;;;6.13;;
23884;SDS011;12123;53.088;7.392;2022-11-27T10:45:02;14.68;;;6.72;;
23884;SDS011;12123;53.088;7.392;2022-11-27T10:47:30;15.70;;;6.72;;
23884;SDS011;12123;53.088;7.392;2022-11-27T10:49:59;20.02;;;7.30;;
23884;SDS011;12123;53.088;7.392;2022-11-27T10:52:27;17.15;;;8.02;;
23884;SDS011;12123;53.088;7.392;2022-11-27T10:55:02;14.80;;;7.55;;
23884;SDS011;12123;53.088;7.392;2022-11-27T10:57:49;20.42;;;8.82;;
23884;SDS011;12123;53.088;7.392;2022-11-27T11:00:21;15.75;;;7.88;;
23884;SDS011;12123;53.088;7.392;2022-11-27T11:02:57;19.08;;;7.45;;
23884;SDS011;12123;53.088;7.392;2022-11-27T11:05:26;14.77;;;7.72;;
23884;SDS011;12123;53.088;7.392;2022-11-27T11:08:17;19.63;;;8.07;;
23884;SDS011;12123;53.088;7.392;2022-11-27T11:13:25;20.23;;;7.80;;
23884;SDS011;12123;53.088;7.392;2022-11-27T11:15:57;21.98;;;7.80;;
23884;SDS011;12123;53.088;7.392;2022-11-27T11:18:26;15.60;;;7.50;;
23884;SDS011;12123;53.088;7.392;2022-11-27T11:21:03;19.40;;;8.35;;
23884;SDS011;12123;53.088;7.392;2022-11-27T11:23:35;15.93;;;7.85;;
23884;SDS011;12123;53.088;7.392;2022-11-27T11:26:26;18.65;;;8.48;;
23884;SDS011;12123;53.088;7.392;2022-11-27T11:28:53;22.50;;;8.98;;
23884;SDS011;12123;53.088;7.392;2022-11-27T11:31:22;21.75;;;9.20;;
23884;SDS011;12123;53.088;7.392;2022-11-27T11:33:55;18.15;;;7.90;;
23884;SDS011;12123;53.088;7.392;2022-11-27T11:36:23;19.98;;;7.72;;
23884;SDS011;12123;53.088;7.392;2022-11-27T11:38:50;17.55;;;8.82;;
23884;SDS011;12123;53.088;7.392;2022-11-27T11:41:18;16.92;;;7.57;;
23884;SDS011;12123;53.088;7.392;2022-11-27T11:43:52;17.85;;;8.30;;
23884;SDS011;12123;53.088;7.392;2022-11-27T11:46:22;18.40;;;7.65;;
23884;SDS011;12123;53.088;7.392;2022-11-27T11:48:54;19.20;;;8.80;;
23884;SDS011;12123;53.088;7.392;2022-11-27T11:51:57;22.27;;;9.13;;
23884;SDS011;12123;53.088;7.392;2022-11-27T11:56:44;17.08;;;8.80;;
23884;SDS011;12123;53.088;7.392;2022-11-27T12:04:39;19.33;;;10.25;;
23884;SDS011;12123;53.088;7.392;2022-11-27T12:09:58;20.33;;;9.52;;
23884;SDS011;12123;53.088;7.392;2022-11-27T12:14:55;18.02;;;8.98;;
23884;SDS011;12123;53.088;7.392;2022-11-27T12:17:29;20.90;;;9.80;;
23884;SDS011;12123;53.088;7.392;2022-11-27T12:20:12;19.13;;;9.05;;
23884;SDS011;12123;53.088;7.392;2022-11-27T12:45:43;17.95;;;9.60;;
23884;SDS011;12123;53.088;7.392;2022-11-27T12:48:17;25.65;;;10.50;;
23884;SDS011;12123;53.088;7.392;2022-11-27T12:50:59;29.58;;;12.63;;
23884;SDS011;12123;53.088;7.392;2022-11-27T12:56:05;22.75;;;10.07;;
23884;SDS011;12123;53.088;7.392;2022-11-27T12:58:39;18.77;;;11.02;;
23884;SDS011;12123;53.088;7.392;2022-11-27T13:01:12;18.38;;;9.30;;
23884;SDS011;12123;53.088;7.392;2022-11-27T13:06:27;20.15;;;10.52;;
23884;SDS011;12123;53.088;7.392;2022-11-27T13:09:06;19.77;;;9.95;;
23884;SDS011;12123;53.088;7.392;2022-11-27T13:11:37;18.20;;;9.05;;
23884;SDS011;12123;53.088;7.392;2022-11-27T13:14:13;20.67;;;10.27;;
23884;SDS011;12123;53.088;7.392;2022-11-27T13:16:46;21.77;;;10.27;;
23884;SDS011;12123;53.088;7.392;2022-11-27T13:21:48;23.42;;;10.60;;
23884;SDS011;12123;53.088;7.392;2022-11-27T13:24:15;23.88;;;10.75;;
23884;SDS011;12123;53.088;7.392;2022-11-27T13:29:18;21.83;;;9.98;;
23884;SDS011;12123;53.088;7.392;2022-11-27T13:31:49;28.20;;;11.65;;
23884;SDS011;12123;53.088;7.392;2022-11-27T13:34:19;29.77;;;12.15;;
23884;SDS011;12123;53.088;7.392;2022-11-27T13:36:53;22.25;;;10.95;;
23884;SDS011;12123;53.088;7.392;2022-11-27T13:39:22;22.33;;;10.37;;
23884;SDS011;12123;53.088;7.392;2022-11-27T13:44:33;21.70;;;10.80;;
23884;SDS011;12123;53.088;7.392;2022-11-27T13:47:06;25.02;;;11.10;;
23884;SDS011;12123;53.088;7.392;2022-11-27T13:49:35;24.48;;;11.38;;
23884;SDS011;12123;53.088;7.392;2022-11-27T13:52:04;25.75;;;11.63;;
23884;SDS011;12123;53.088;7.392;2022-11-27T13:54:31;22.25;;;11.23;;
23884;SDS011;12123;53.088;7.392;2022-11-27T13:57:08;20.10;;;11.48;;
23884;SDS011;12123;53.088;7.392;2022-11-27T13:59:35;21.50;;;11.18;;
23884;SDS011;12123;53.088;7.392;2022-11-27T14:02:05;18.83;;;11.05;;
23884;SDS011;12123;53.088;7.392;2022-11-27T14:04:33;21.15;;;12.50;;
23884;SDS011;12123;53.088;7.392;2022-11-27T14:07:09;26.05;;;11.95;;
23884;SDS011;12123;53.088;7.392;2022-11-27T14:09:51;28.00;;;13.30;;
23884;SDS011;12123;53.088;7.392;2022-11-27T14:17:36;26.40;;;12.60;;
23884;SDS011;12123;53.088;7.392;2022-11-27T14:22:43;27.02;;;11.88;;
23884;SDS011;12123;53.088;7.392;2022-11-27T14:25:31;23.10;;;12.65;;
23884;SDS011;12123;53.088;7.392;2022-11-27T14:30:31;24.85;;;12.95;;
23884;SDS011;12123;53.088;7.392;2022-11-27T14:33:03;27.60;;;12.75;;
23884;SDS011;12123;53.088;7.392;2022-11-27T14:35:30;30.38;;;13.35;;
23884;SDS011;12123;53.088;7.392;2022-11-27T14:38:07;24.35;;;12.50;;
23884;SDS011;12123;53.088;7.392;2022-11-27T14:40:35;31.33;;;13.65;;
23884;SDS011;12123;53.088;7.392;2022-11-27T14:43:09;27.63;;;13.27;;
23884;SDS011;12123;53.088;7.392;2022-11-27T14:45:36;25.85;;;12.38;;
23884;SDS011;12123;53.088;7.392;2022-11-27T14:48:04;22.80;;;12.52;;
23884;SDS011;12123;53.088;7.392;2022-11-27T14:50:31;22.73;;;12.10;;
23884;SDS011;12123;53.088;7.392;2022-11-27T14:52:58;25.80;;;12.70;;
23884;SDS011;12123;53.088;7.392;2022-11-27T14:55:26;26.77;;;12.75;;
23884;SDS011;12123;53.088;7.392;2022-11-27T14:57:59;25.40;;;12.05;;
23884;SDS011;12123;53.088;7.392;2022-11-27T15:00:27;27.45;;;13.18;;
23884;SDS011;12123;53.088;7.392;2022-11-27T15:02:55;23.98;;;12.35;;
23884;SDS011;12123;53.088;7.392;2022-11-27T15:05:32;22.83;;;12.25;;
23884;SDS011;12123;53.088;7.392;2022-11-27T15:08:00;30.90;;;13.57;;
23884;SDS011;12123;53.088;7.392;2022-11-27T15:10:35;29.73;;;13.30;;
23884;SDS011;12123;53.088;7.392;2022-11-27T15:13:03;30.60;;;14.32;;
23884;SDS011;12123;53.088;7.392;2022-11-27T15:15:32;23.90;;;13.77;;
23884;SDS011;12123;53.088;7.392;2022-11-27T15:18:03;27.83;;;14.45;;
23884;SDS011;12123;53.088;7.392;2022-11-27T15:20:36;31.27;;;14.45;;
23884;SDS011;12123;53.088;7.392;2022-11-27T15:23:11;25.98;;;14.65;;
23884;SDS011;12123;53.088;7.392;2022-11-27T15:25:41;29.40;;;14.23;;
23884;SDS011;12123;53.088;7.392;2022-11-27T15:28:20;26.80;;;14.18;;
23884;SDS011;12123;53.088;7.392;2022-11-27T15:30:50;31.90;;;14.63;;
23884;SDS011;12123;53.088;7.392;2022-11-27T15:36:05;27.80;;;14.75;;
23884;SDS011;12123;53.088;7.392;2022-11-27T15:38:40;28.75;;;14.02;;
23884;SDS011;12123;53.088;7.392;2022-11-27T15:41:26;33.03;;;14.93;;
23884;SDS011;12123;53.088;7.392;2022-11-27T15:43:55;29.10;;;14.82;;
23884;SDS011;12123;53.088;7.392;2022-11-27T15:46:24;25.73;;;13.48;;
23884;SDS011;12123;53.088;7.392;2022-11-27T15:48:52;29.83;;;14.27;;
23884;SDS011;12123;53.088;7.392;2022-11-27T15:51:19;26.98;;;14.38;;
23884;SDS011;12123;53.088;7.392;2022-11-27T15:53:46;33.83;;;16.08;;
23884;SDS011;12123;53.088;7.392;2022-11-27T15:56:14;25.08;;;14.90;;
23884;SDS011;12123;53.088;7.392;2022-11-27T15:58:41;29.67;;;14.30;;
23884;SDS011;12123;53.088;7.392;2022-11-27T16:01:09;24.48;;;14.38;;
23884;SDS011;12123;53.088;7.392;2022-11-27T16:03:37;32.35;;;15.70;;
23884;SDS011;12123;53.088;7.392;2022-11-27T16:06:05;24.60;;;13.70;;
23884;SDS011;12123;53.088;7.392;2022-11-27T16:08:33;27.00;;;14.25;;
23884;SDS011;12123;53.088;7.392;2022-11-27T16:11:01;28.17;;;14.40;;
23884;SDS011;12123;53.088;7.392;2022-11-27T16:13:28;29.45;;;15.18;;
23884;SDS011;12123;53.088;7.392;2022-11-27T16:16:02;28.90;;;15.38;;
23884;SDS011;12123;53.088;7.392;2022-11-27T16:18:31;32.17;;;14.98;;
23884;SDS011;12123;53.088;7.392;2022-11-27T16:21:03;28.77;;;14.98;;
23884;SDS011;12123;53.088;7.392;2022-11-27T16:23:31;26.92;;;15.15;;
23884;SDS011;12123;53.088;7.392;2022-11-27T16:25:58;29.27;;;14.70;;
23884;SDS011;12123;53.088;7.392;2022-11-27T16:28:26;32.35;;;14.98;;
23884;SDS011;12123;53.088;7.392;2022-11-27T16:30:54;34.42;;;15.07;;
23884;SDS011;12123;53.088;7.392;2022-11-27T16:33:24;31.48;;;15.63;;
23884;SDS011;12123;53.088;7.392;2022-11-27T16:35:51;30.85;;;16.25;;
23884;SDS011;12123;53.088;7.392;2022-11-27T16:38:19;29.50;;;14.88;;
23884;SDS011;12123;53.088;7.392;2022-11-27T16:40:47;35.92;;;16.17;;
23884;SDS011;12123;53.088;7.392;2022-11-27T16:43:14;26.88;;;15.52;;
23884;SDS011;12123;53.088;7.392;2022-11-27T16:45:41;33.33;;;15.85;;
23884;SDS011;12123;53.088;7.392;2022-11-27T16:48:09;29.40;;;16.58;;
23884;SDS011;12123;53.088;7.392;2022-11-27T16:50:36;28.27;;;15.95;;